Time,TemperatureF,DewpointF,PressureIn,WindDirection,WindDirectionDegrees,WindSpeedMPH,WindSpeedGustMPH,Humidity,HourlyPrecipIn,Conditions,Clouds,dailyrainin,SoftwareType,DateUTC
2013-03-30 00:00:00,47.2,30.0,28.62,West,265,3.5,3.5,51,0.00,CLR,CLR,0.00,WeatherDisplay:10.37,2013-03-30 04:00:00,
2013-03-30 00:02:00,47.1,29.9,28.62,NW,312,6.9,6.9,51,0.00,CLR,CLR,0.00,WeatherDisplay:10.37,2013-03-30 04:02:00,
2013-03-30 00:07:00,47.1,29.9,28.61,NW,313,3.5,3.6,51,0.00,CLR,CLR,0.00,WeatherDisplay:10.37,2013-03-30 04:07:00,
2013-03-30 00:12:00,47.0,29.8,28.61,WNW,294,3.5,3.5,51,0.00,CLR,CLR,0.00,WeatherDisplay:10.37,2013-03-30 04:12:00,
2013-03-30 00:17:00,47.0,30.3,28.61,WNW,286,5.0,5.0,52,0.00,CLR,CLR,0.00,WeatherDisplay:10.37,2013-03-30 04:17:00,
2013-03-30 00:22:00,46.9,30.2,28.62,WNW,292,3.5,3.5,52,0.00,CLR,CLR,0.00,WeatherDisplay:10.37,2013-03-30 04:22:00,
2013-03-30 00:27:00,46.7,30.0,28.61,WNW,299,4.6,4.6,52,0.00,CLR,CLR,0.00,WeatherDisplay:10.37,2013-03-30 04:27:00,
2013-03-30 00:33:00,46.5,30.3,28.61,WNW,299,4.0,4.0,53,0.00,CLR,CLR,0.00,WeatherDisplay:10.37,2013-03-30 04:33:00,
2013-03-30 00:38:00,46.3,30.5,28.61,WNW,299,5.0,5.0,54,0.00,CLR,CLR,0.00,WeatherDisplay:10.37,2013-03-30 04:38:00,
2013-03-30 00:43:00,46.1,30.4,28.61,WNW,299,4.0,4.0,54,0.00,CLR,CLR,0.00,WeatherDisplay:10.37,2013-03-30 04:43:00,
2013-03-30 00:48:00,45.8,30.5,28.61,WNW,288,5.8,5.8,55,0.00,CLR,CLR,0.00,WeatherDisplay:10.37,2013-03-30 04:48:00,
2013-03-30 00:53:00,45.6,30.3,28.61,WSW,249,3.5,3.5,55,0.00,CLR,CLR,0.00,WeatherDisplay:10.37,2013-03-30 04:53:00,
2013-03-30 00:58:00,45.5,30.7,28.61,West,271,5.0,5.0,56,0.00,CLR,CLR,0.00,WeatherDisplay:10.37,2013-03-30 04:58:00,
2013-03-30 01:03:00,45.3,30.5,28.60,West,262,4.0,4.0,56,0.00,CLR,CLR,0.00,WeatherDisplay:10.37,2013-03-30 05:03:00,
2013-03-30 01:09:00,45.2,30.9,28.61,West,275,5.8,5.8,57,0.00,CLR,CLR,0.00,WeatherDisplay:10.37,2013-03-30 05:09:00,
2013-03-30 01:14:00,44.9,30.6,28.61,NW,307,4.6,4.6,57,0.00,CLR,CLR,0.00,WeatherDisplay:10.37,2013-03-30 05:14:00,
2013-03-30 01:19:00,44.8,30.9,28.61,West,272,5.8,5.8,58,0.00,CLR,CLR,0.00,WeatherDisplay:10.37,2013-03-30 05:19:00,
2013-03-30 01:24:00,44.6,30.7,28.60,WNW,285,8.1,8.1,58,0.00,CLR,CLR,0.00,WeatherDisplay:10.37,2013-03-30 05:24:00,
2013-03-30 01:30:00,44.6,30.7,28.61,West,277,8.1,8.1,58,0.00,CLR,CLR,0.00,WeatherDisplay:10.37,2013-03-30 05:30:00,
2013-03-30 01:35:00,44.4,31.0,28.61,West,279,6.9,6.9,59,0.00,CLR,CLR,0.00,WeatherDisplay:10.37,2013-03-30 05:35:00,
2013-03-30 01:40:00,44.3,30.9,28.60,West,264,7.0,7.0,59,0.00,CLR,CLR,0.00,WeatherDisplay:10.37,2013-03-30 05:40:00,
2013-03-30 01:45:00,44.1,31.1,28.60,WNW,291,5.8,5.8,60,0.00,CLR,CLR,0.00,WeatherDisplay:10.37,2013-03-30 05:45:00,
2013-03-30 01:50:00,44.1,31.5,28.60,West,270,8.1,8.1,61,0.00,CLR,CLR,0.00,WeatherDisplay:10.37,2013-03-30 05:50:00,
2013-03-30 01:56:00,44.0,31.4,28.60,West,268,9.0,9.0,61,0.00,CLR,CLR,0.00,WeatherDisplay:10.37,2013-03-30 05:56:00,
2013-03-30 02:01:00,44.0,31.4,28.60,West,262,8.0,8.0,61,0.00,CLR,CLR,0.00,WeatherDisplay:10.37,2013-03-30 06:01:00,
2013-03-30 02:06:00,43.9,31.3,28.60,NW,309,6.9,6.9,61,0.00,CLR,CLR,0.00,WeatherDisplay:10.37,2013-03-30 06:06:00,
2013-03-30 02:11:00,43.9,31.3,28.60,WNW,289,4.6,4.6,61,0.00,CLR,CLR,0.00,WeatherDisplay:10.37,2013-03-30 06:11:00,
2013-03-30 02:16:00,43.7,31.5,28.59,West,274,5.8,5.8,62,0.00,CLR,CLR,0.00,WeatherDisplay:10.37,2013-03-30 06:16:00,
2013-03-30 02:21:00,43.5,31.7,28.60,WNW,283,4.6,4.6,63,0.00,CLR,CLR,0.00,WeatherDisplay:10.37,2013-03-30 06:21:00,
2013-03-30 02:27:00,43.3,31.5,28.60,WSW,257,6.9,6.9,63,0.00,CLR,CLR,0.00,WeatherDisplay:10.37,2013-03-30 06:27:00,
2013-03-30 02:32:00,43.2,31.4,28.59,West,274,4.6,4.6,63,0.00,CLR,CLR,0.00,WeatherDisplay:10.37,2013-03-30 06:32:00,
2013-03-30 02:37:00,43.2,31.8,28.59,WNW,284,4.6,4.6,64,0.00,CLR,CLR,0.00,WeatherDisplay:10.37,2013-03-30 06:37:00,
2013-03-30 02:42:00,43.1,31.7,28.60,West,267,4.0,4.0,64,0.00,CLR,CLR,0.00,WeatherDisplay:10.37,2013-03-30 06:42:00,
2013-03-30 02:47:00,43.2,31.8,28.60,WSW,258,8.1,8.1,64,0.00,CLR,CLR,0.00,WeatherDisplay:10.37,2013-03-30 06:47:00,
2013-03-30 02:52:00,43.3,31.9,28.60,WNW,288,5.8,5.8,64,0.00,CLR,CLR,0.00,WeatherDisplay:10.37,2013-03-30 06:52:00,
2013-03-30 02:58:00,43.3,31.9,28.59,West,276,6.9,6.9,64,0.00,CLR,CLR,0.00,WeatherDisplay:10.37,2013-03-30 06:58:00,
2013-03-30 03:03:00,43.4,31.6,28.59,WNW,282,5.0,5.0,63,0.00,CLR,CLR,0.00,WeatherDisplay:10.37,2013-03-30 07:03:00,
2013-03-30 03:08:00,43.3,31.5,28.59,West,273,5.8,5.8,63,0.00,CLR,CLR,0.00,WeatherDisplay:10.37,2013-03-30 07:08:00,
2013-03-30 03:13:00,43.2,31.4,28.59,West,277,4.6,4.6,63,0.00,CLR,CLR,0.00,WeatherDisplay:10.37,2013-03-30 07:13:00,
2013-03-30 03:18:00,43.2,31.4,28.60,West,260,6.9,6.9,63,0.00,CLR,CLR,0.00,WeatherDisplay:10.37,2013-03-30 07:18:00,
2013-03-30 03:23:00,43.1,31.4,28.59,WSW,252,7.0,7.0,63,0.00,CLR,CLR,0.00,WeatherDisplay:10.37,2013-03-30 07:23:00,
2013-03-30 03:28:00,43.2,31.4,28.59,West,269,6.9,6.9,63,0.00,CLR,CLR,0.00,WeatherDisplay:10.37,2013-03-30 07:28:00,
2013-03-30 03:33:00,43.2,31.4,28.59,West,261,5.0,5.0,63,0.00,CLR,CLR,0.00,WeatherDisplay:10.37,2013-03-30 07:33:00,
2013-03-30 03:38:00,43.2,31.4,28.59,WSW,253,4.6,4.6,63,0.00,CLR,CLR,0.00,WeatherDisplay:10.37,2013-03-30 07:38:00,
2013-03-30 03:43:00,43.3,31.1,28.60,West,260,5.0,5.0,62,0.00,CLR,CLR,0.00,WeatherDisplay:10.37,2013-03-30 07:43:00,
2013-03-30 03:48:00,43.5,31.3,28.60,WSW,257,3.5,3.5,62,0.00,CLR,CLR,0.00,WeatherDisplay:10.37,2013-03-30 07:48:00,
2013-03-30 03:53:00,43.6,31.4,28.60,WSW,257,3.5,3.5,62,0.00,CLR,CLR,0.00,WeatherDisplay:10.37,2013-03-30 07:53:00,
2013-03-30 03:58:00,43.7,31.5,28.59,WSW,256,3.5,3.5,62,0.00,CLR,CLR,0.00,WeatherDisplay:10.37,2013-03-30 07:58:00,
2013-03-30 04:03:00,43.7,31.5,28.59,WSW,256,2.3,2.3,62,0.00,CLR,CLR,0.00,WeatherDisplay:10.37,2013-03-30 08:03:00,
2013-03-30 04:08:00,43.8,31.2,28.59,West,259,4.6,4.6,61,0.00,CLR,CLR,0.00,WeatherDisplay:10.37,2013-03-30 08:08:00,
2013-03-30 04:14:00,44.0,31.4,28.59,West,260,5.0,5.0,61,0.00,CLR,CLR,0.00,WeatherDisplay:10.37,2013-03-30 08:14:00,
2013-03-30 04:19:00,43.9,31.3,28.60,WSW,255,4.0,4.0,61,0.00,CLR,CLR,0.00,WeatherDisplay:10.37,2013-03-30 08:19:00,
2013-03-30 04:24:00,43.9,31.3,28.59,West,260,5.0,5.0,61,0.00,CLR,CLR,0.00,WeatherDisplay:10.37,2013-03-30 08:24:00,
2013-03-30 04:29:00,43.9,31.7,28.59,West,262,5.8,5.8,62,0.00,CLR,CLR,0.00,WeatherDisplay:10.37,2013-03-30 08:29:00,
2013-03-30 04:34:00,43.8,31.6,28.59,WSW,250,6.0,6.0,62,0.00,CLR,CLR,0.00,WeatherDisplay:10.37,2013-03-30 08:34:00,
2013-03-30 04:39:00,43.7,31.5,28.59,West,272,6.9,6.9,62,0.00,CLR,CLR,0.00,WeatherDisplay:10.37,2013-03-30 08:39:00,
2013-03-30 04:45:00,43.6,31.4,28.59,West,272,4.6,4.6,62,0.00,CLR,CLR,0.00,WeatherDisplay:10.37,2013-03-30 08:45:00,
2013-03-30 04:50:00,43.7,31.5,28.59,West,265,5.8,5.8,62,0.00,CLR,CLR,0.00,WeatherDisplay:10.37,2013-03-30 08:50:00,
2013-03-30 04:55:00,43.6,31.4,28.60,WNW,296,5.8,5.8,62,0.00,CLR,CLR,0.00,WeatherDisplay:10.37,2013-03-30 08:55:00,
2013-03-30 05:00:00,43.6,31.0,28.59,NW,309,3.5,3.5,61,0.00,CLR,CLR,0.00,WeatherDisplay:10.37,2013-03-30 09:00:00,
2013-03-30 05:05:00,43.7,31.1,28.59,WNW,296,4.6,4.6,61,0.00,CLR,CLR,0.00,WeatherDisplay:10.37,2013-03-30 09:05:00,
2013-03-30 05:10:00,43.6,31.0,28.59,WNW,296,3.5,3.5,61,0.00,CLR,CLR,0.00,WeatherDisplay:10.37,2013-03-30 09:10:00,
2013-03-30 05:16:00,43.4,31.2,28.60,WNW,296,3.5,3.5,62,0.00,CLR,CLR,0.00,WeatherDisplay:10.37,2013-03-30 09:16:00,
2013-03-30 05:21:00,43.4,30.8,28.59,WNW,282,4.6,4.6,61,0.00,CLR,CLR,0.00,WeatherDisplay:10.37,2013-03-30 09:21:00,
2013-03-30 05:27:00,43.3,31.1,28.59,West,276,4.6,4.6,62,0.00,CLR,CLR,0.00,WeatherDisplay:10.37,2013-03-30 09:27:00,
2013-03-30 05:32:00,43.2,31.1,28.60,West,269,5.0,5.0,62,0.00,CLR,CLR,0.00,WeatherDisplay:10.37,2013-03-30 09:32:00,
2013-03-30 05:36:00,43.3,31.1,28.60,West,277,3.5,3.5,62,0.00,CLR,CLR,0.00,WeatherDisplay:10.37,2013-03-30 09:36:00,
2013-03-30 05:41:00,43.4,31.2,28.60,West,276,5.8,5.8,62,0.00,CLR,CLR,0.00,WeatherDisplay:10.37,2013-03-30 09:41:00,
2013-03-30 05:46:00,43.3,31.1,28.60,West,273,4.0,4.0,62,0.00,CLR,CLR,0.00,WeatherDisplay:10.37,2013-03-30 09:46:00,
2013-03-30 05:52:00,43.2,31.1,28.63,West,273,4.6,4.6,62,0.00,CLR,CLR,0.00,WeatherDisplay:10.37,2013-03-30 09:52:00,
2013-03-30 05:57:00,43.2,31.4,28.62,WNW,297,4.6,4.6,63,0.00,CLR,CLR,0.00,WeatherDisplay:10.37,2013-03-30 09:57:00,
2013-03-30 06:02:00,43.0,31.3,28.63,WNW,298,4.6,4.6,63,0.00,CLR,CLR,0.00,WeatherDisplay:10.37,2013-03-30 10:02:00,
2013-03-30 06:07:00,42.8,31.1,28.63,West,271,4.6,4.6,63,0.00,CLR,CLR,0.00,WeatherDisplay:10.37,2013-03-30 10:07:00,
2013-03-30 06:12:00,42.6,31.3,28.64,West,267,6.0,6.0,64,0.00,CLR,CLR,0.00,WeatherDisplay:10.37,2013-03-30 10:12:00,
2013-03-30 06:17:00,42.5,31.2,28.63,West,280,4.6,4.6,64,0.00,CLR,CLR,0.00,WeatherDisplay:10.37,2013-03-30 10:17:00,
2013-03-30 06:22:00,42.4,31.1,28.63,West,273,3.5,3.5,64,0.00,CLR,CLR,0.00,WeatherDisplay:10.37,2013-03-30 10:22:00,
2013-03-30 06:28:00,42.3,31.0,28.64,West,272,4.0,4.0,64,0.00,CLR,CLR,0.00,WeatherDisplay:10.37,2013-03-30 10:28:00,
2013-03-30 06:33:00,42.3,31.0,28.63,WNW,286,3.5,3.5,64,0.00,CLR,CLR,0.00,WeatherDisplay:10.37,2013-03-30 10:33:00,
2013-03-30 06:38:00,42.3,31.0,28.64,West,268,3.5,3.5,64,0.00,CLR,CLR,0.00,WeatherDisplay:10.37,2013-03-30 10:38:00,
2013-03-30 06:43:00,42.3,31.4,28.65,West,267,4.6,4.6,65,0.00,CLR,CLR,0.00,WeatherDisplay:10.37,2013-03-30 10:43:00,
2013-03-30 06:48:00,42.1,31.2,28.65,West,267,3.5,3.5,65,0.00,CLR,CLR,0.00,WeatherDisplay:10.37,2013-03-30 10:48:00,
2013-03-30 06:53:00,42.0,31.1,28.65,West,268,3.5,3.5,65,0.00,CLR,CLR,0.00,WeatherDisplay:10.37,2013-03-30 10:53:00,
2013-03-30 06:59:00,42.1,30.8,28.65,West,268,3.5,3.5,64,0.00,CLR,CLR,0.00,WeatherDisplay:10.37,2013-03-30 10:59:00,
2013-03-30 07:04:00,42.1,30.8,28.66,West,268,3.5,3.5,64,0.00,CLR,CLR,0.00,WeatherDisplay:10.37,2013-03-30 11:04:00,
2013-03-30 07:09:00,42.0,31.1,28.65,West,267,2.3,2.3,65,0.00,CLR,CLR,0.00,WeatherDisplay:10.37,2013-03-30 11:09:00,
2013-03-30 07:14:00,41.9,31.0,28.65,West,267,3.5,3.5,65,0.00,CLR,CLR,0.00,WeatherDisplay:10.37,2013-03-30 11:14:00,
2013-03-30 07:19:00,41.9,31.0,28.66,West,267,3.5,3.5,65,0.00,CLR,CLR,0.00,WeatherDisplay:10.37,2013-03-30 11:19:00,
2013-03-30 07:24:00,41.9,31.0,28.66,West,267,4.6,4.6,65,0.00,CLR,CLR,0.00,WeatherDisplay:10.37,2013-03-30 11:24:00,
2013-03-30 07:30:00,42.1,31.2,28.66,West,268,4.6,4.6,65,0.00,CLR,CLR,0.00,WeatherDisplay:10.37,2013-03-30 11:30:00,
2013-03-30 07:35:00,42.3,31.4,28.79,West,267,3.5,3.5,65,0.00,CLR,CLR,0.00,WeatherDisplay:10.37,2013-03-30 11:35:00,
2013-03-30 07:40:00,42.4,31.5,28.81,West,267,3.5,3.5,65,0.00,CLR,CLR,0.00,WeatherDisplay:10.37,2013-03-30 11:40:00,
2013-03-30 07:45:00,42.7,31.7,28.81,West,265,5.8,5.8,65,0.00,CLR,CLR,0.00,WeatherDisplay:10.37,2013-03-30 11:45:00,
2013-03-30 07:50:00,42.9,31.9,28.82,WSW,255,3.5,3.5,65,0.00,CLR,CLR,0.00,WeatherDisplay:10.37,2013-03-30 11:50:00,
2013-03-30 07:55:00,42.9,31.9,28.81,West,270,6.9,6.9,65,0.00,CLR,CLR,0.00,WeatherDisplay:10.37,2013-03-30 11:55:00,
2013-03-30 08:00:00,42.9,32.3,28.79,West,261,4.0,4.0,66,0.00,CLR,CLR,0.00,WeatherDisplay:10.37,2013-03-30 12:00:00,
2013-03-30 08:05:00,43.2,32.6,28.82,SW,222,3.5,3.5,66,0.00,CLR,CLR,0.00,WeatherDisplay:10.37,2013-03-30 12:05:00,
2013-03-30 08:11:00,43.5,32.5,28.82,SW,231,3.5,3.5,65,0.00,CLR,CLR,0.00,WeatherDisplay:10.37,2013-03-30 12:11:00,
2013-03-30 08:16:00,43.9,32.9,28.82,WSW,244,3.5,3.5,65,0.00,CLR,CLR,0.00,WeatherDisplay:10.37,2013-03-30 12:16:00,
2013-03-30 08:21:00,44.4,33.0,28.85,WSW,252,4.6,4.6,64,0.00,CLR,CLR,0.00,WeatherDisplay:10.37,2013-03-30 12:21:00,
2013-03-30 08:26:00,44.9,33.5,28.83,WSW,255,3.5,3.5,64,0.00,CLR,CLR,0.00,WeatherDisplay:10.37,2013-03-30 12:26:00,
2013-03-30 08:32:00,45.8,33.9,28.83,WSW,255,2.3,2.3,63,0.00,CLR,CLR,0.00,WeatherDisplay:10.37,2013-03-30 12:32:00,
2013-03-30 08:37:00,46.9,35.0,28.82,WSW,255,2.3,2.3,63,0.00,CLR,CLR,0.00,WeatherDisplay:10.37,2013-03-30 12:37:00,
2013-03-30 08:42:00,47.7,34.9,28.80,WSW,255,1.2,0.0,61,0.00,CLR,CLR,0.00,WeatherDisplay:10.37,2013-03-30 12:42:00,
2013-03-30 08:47:00,48.4,35.1,28.84,WSW,255,3.0,3.0,60,0.00,CLR,CLR,0.00,WeatherDisplay:10.37,2013-03-30 12:47:00,
2013-03-30 08:52:00,49.2,35.5,28.86,WSW,255,2.3,2.3,59,0.00,CLR,CLR,0.00,WeatherDisplay:10.37,2013-03-30 12:52:00,
2013-03-30 08:58:00,50.0,35.4,28.90,WNW,285,3.5,3.5,57,0.00,CLR,CLR,0.00,WeatherDisplay:10.37,2013-03-30 12:58:00,
2013-03-30 09:03:00,50.5,35.4,28.89,WNW,285,3.5,3.5,56,0.00,CLR,CLR,0.00,WeatherDisplay:10.37,2013-03-30 13:03:00,
2013-03-30 09:08:00,51.3,35.7,28.90,WNW,285,3.5,3.5,55,0.00,CLR,CLR,0.00,WeatherDisplay:10.37,2013-03-30 13:08:00,
2013-03-30 09:13:00,51.7,35.1,28.92,WNW,286,3.5,3.5,53,0.00,CLR,CLR,0.00,WeatherDisplay:10.37,2013-03-30 13:13:00,
2013-03-30 09:18:00,52.2,35.1,28.89,North,0,4.0,4.0,52,0.00,CLR,CLR,0.00,WeatherDisplay:10.37,2013-03-30 13:18:00,
2013-03-30 09:23:00,52.7,34.6,28.94,North,0,4.0,4.0,50,0.00,CLR,CLR,0.00,WeatherDisplay:10.37,2013-03-30 13:23:00,
2013-03-30 09:28:00,53.0,34.8,28.93,North,0,5.0,5.0,50,0.00,CLR,CLR,0.00,WeatherDisplay:10.37,2013-03-30 13:28:00,
2013-03-30 09:34:00,53.5,35.3,28.92,North,1,3.5,3.5,50,0.00,CLR,CLR,0.00,WeatherDisplay:10.37,2013-03-30 13:34:00,
2013-03-30 09:39:00,54.2,34.4,28.93,North,1,3.5,3.5,47,0.00,CLR,CLR,0.00,WeatherDisplay:10.37,2013-03-30 13:39:00,
2013-03-30 09:44:00,54.6,34.8,28.91,NNE,14,3.5,3.5,47,0.00,CLR,CLR,0.00,WeatherDisplay:10.37,2013-03-30 13:44:00,
2013-03-30 09:50:00,54.8,34.9,28.89,NNE,20,3.5,3.5,47,0.00,CLR,CLR,0.00,WeatherDisplay:10.37,2013-03-30 13:50:00,
2013-03-30 09:55:00,55.0,35.1,28.90,NE,39,4.6,4.6,47,0.00,CLR,CLR,0.00,WeatherDisplay:10.37,2013-03-30 13:55:00,
2013-03-30 10:00:00,55.2,35.3,28.93,NNE,18,3.5,3.5,47,0.00,CLR,CLR,0.00,WeatherDisplay:10.37,2013-03-30 14:00:00,
2013-03-30 10:05:00,55.5,34.5,28.90,ENE,59,6.0,6.0,45,0.00,CLR,CLR,0.00,WeatherDisplay:10.37,2013-03-30 14:05:00,
2013-03-30 10:10:00,55.6,34.6,28.90,NNE,33,3.5,3.5,45,0.00,CLR,CLR,0.00,WeatherDisplay:10.37,2013-03-30 14:10:00,
2013-03-30 10:15:00,55.9,34.8,28.87,North,6,3.5,3.5,45,0.00,CLR,CLR,0.00,WeatherDisplay:10.37,2013-03-30 14:15:00,
2013-03-30 10:20:00,55.9,35.4,28.87,North,0,5.8,5.8,46,0.00,CLR,CLR,0.00,WeatherDisplay:10.37,2013-03-30 14:20:00,
2013-03-30 10:26:00,56.2,34.0,28.86,NE,56,3.5,4.1,43,0.00,CLR,CLR,0.00,WeatherDisplay:10.37,2013-03-30 14:26:00,
2013-03-30 10:32:00,55.7,34.7,28.89,North,0,6.9,6.9,45,0.00,CLR,CLR,0.00,WeatherDisplay:10.37,2013-03-30 14:32:00,
2013-03-30 10:37:00,55.6,35.1,28.87,North,1,6.0,6.0,46,0.00,CLR,CLR,0.00,WeatherDisplay:10.37,2013-03-30 14:37:00,
2013-03-30 10:42:00,55.8,35.3,28.88,SSE,165,4.0,4.0,46,0.00,CLR,CLR,0.00,WeatherDisplay:10.37,2013-03-30 14:42:00,
2013-03-30 10:47:00,56.1,34.5,28.86,ENE,62,3.5,3.5,44,0.00,CLR,CLR,0.00,WeatherDisplay:10.37,2013-03-30 14:47:00,
2013-03-30 10:52:00,56.1,34.5,28.87,NE,53,4.0,4.0,44,0.00,CLR,CLR,0.00,WeatherDisplay:10.37,2013-03-30 14:52:00,
2013-03-30 10:57:00,56.0,34.4,28.93,ENE,62,3.5,3.5,44,0.00,CLR,CLR,0.00,WeatherDisplay:10.37,2013-03-30 14:57:00,
2013-03-30 11:02:00,55.9,34.3,28.90,NE,44,3.5,3.5,44,0.00,CLR,CLR,0.00,WeatherDisplay:10.37,2013-03-30 15:02:00,
2013-03-30 11:07:00,56.2,34.0,28.93,ENE,57,5.8,5.8,43,0.00,CLR,CLR,0.00,WeatherDisplay:10.37,2013-03-30 15:07:00,
2013-03-30 11:12:00,56.5,34.8,28.88,ESE,108,3.5,3.5,44,0.00,CLR,CLR,0.00,WeatherDisplay:10.37,2013-03-30 15:12:00,
2013-03-30 11:17:00,56.8,33.9,28.88,East,79,4.6,4.6,42,0.00,CLR,CLR,0.00,WeatherDisplay:10.37,2013-03-30 15:17:00,
2013-03-30 11:23:00,57.0,34.1,28.88,East,99,8.1,8.1,42,0.00,CLR,CLR,0.00,WeatherDisplay:10.37,2013-03-30 15:23:00,
2013-03-30 11:28:00,57.2,34.3,28.94,East,94,5.0,5.0,42,0.00,CLR,CLR,0.00,WeatherDisplay:10.37,2013-03-30 15:28:00,
2013-03-30 11:33:00,57.3,34.4,28.88,SSE,156,6.9,6.9,42,0.00,CLR,CLR,0.00,WeatherDisplay:10.37,2013-03-30 15:33:00,
2013-03-30 11:38:00,57.5,34.6,28.82,North,7,6.0,6.0,42,0.00,CLR,CLR,0.00,WeatherDisplay:10.37,2013-03-30 15:38:00,
2013-03-30 11:44:00,57.4,35.1,28.92,NNE,19,6.9,6.9,43,0.00,CLR,CLR,0.00,WeatherDisplay:10.37,2013-03-30 15:44:00,
2013-03-30 11:49:00,57.4,33.9,28.91,North,11,7.0,7.0,41,0.00,CLR,CLR,0.00,WeatherDisplay:10.37,2013-03-30 15:49:00,
2013-03-30 11:54:00,57.1,34.2,28.90,North,4,5.8,5.8,42,0.00,CLR,CLR,0.00,WeatherDisplay:10.37,2013-03-30 15:54:00,
2013-03-30 11:59:00,57.0,34.7,28.90,NNE,18,3.5,3.5,43,0.00,CLR,CLR,0.00,WeatherDisplay:10.37,2013-03-30 15:59:00,
2013-03-30 12:04:00,57.3,35.0,28.89,North,1,6.0,6.0,43,0.00,CLR,CLR,0.00,WeatherDisplay:10.37,2013-03-30 16:04:00,
2013-03-30 12:10:00,57.7,34.1,28.89,ESE,103,3.5,3.5,41,0.00,CLR,CLR,0.00,WeatherDisplay:10.37,2013-03-30 16:10:00,
2013-03-30 12:15:00,57.8,35.4,28.94,NW,324,3.5,3.5,43,0.00,CLR,CLR,0.00,WeatherDisplay:10.37,2013-03-30 16:15:00,
2013-03-30 12:20:00,58.3,34.7,28.89,SE,130,5.8,5.8,41,0.00,CLR,CLR,0.00,WeatherDisplay:10.37,2013-03-30 16:20:00,
2013-03-30 12:25:00,58.7,36.2,28.83,NNE,19,3.5,3.5,43,0.00,CLR,CLR,0.00,WeatherDisplay:10.37,2013-03-30 16:25:00,
2013-03-30 12:30:00,58.4,35.4,28.96,North,359,5.8,5.8,42,0.00,CLR,CLR,0.00,WeatherDisplay:10.37,2013-03-30 16:30:00,
2013-03-30 12:36:00,58.1,34.5,29.01,NNE,18,8.1,8.1,41,0.00,CLR,CLR,0.00,WeatherDisplay:10.37,2013-03-30 16:36:00,
2013-03-30 12:41:00,58.1,35.1,29.04,North,0,6.9,6.9,42,0.00,CLR,CLR,0.00,WeatherDisplay:10.37,2013-03-30 16:41:00,
2013-03-30 12:47:00,58.3,35.3,28.94,North,353,4.0,4.0,42,0.00,CLR,CLR,0.00,WeatherDisplay:10.37,2013-03-30 16:47:00,
2013-03-30 12:52:00,58.6,35.0,28.84,SE,144,6.9,6.9,41,0.00,CLR,CLR,0.00,WeatherDisplay:10.37,2013-03-30 16:52:00,
2013-03-30 12:57:00,59.1,34.8,28.92,NE,39,4.6,4.6,40,0.00,CLR,CLR,0.00,WeatherDisplay:10.37,2013-03-30 16:57:00,
2013-03-30 13:02:00,59.0,35.3,28.93,NE,37,3.5,3.5,41,0.00,CLR,CLR,0.00,WeatherDisplay:10.37,2013-03-30 17:02:00,
2013-03-30 13:08:00,59.2,35.5,28.89,ENE,68,1.0,1.0,41,0.00,CLR,CLR,0.00,WeatherDisplay:10.37,2013-03-30 17:08:00,
2013-03-30 13:13:00,59.5,35.1,28.87,North,0,3.5,3.5,40,0.00,CLR,CLR,0.00,WeatherDisplay:10.37,2013-03-30 17:13:00,
2013-03-30 13:18:00,59.6,35.2,28.92,NNE,13,3.5,3.5,40,0.00,CLR,CLR,0.00,WeatherDisplay:10.37,2013-03-30 17:18:00,
2013-03-30 13:23:00,59.4,35.1,28.94,South,183,5.0,5.0,40,0.00,CLR,CLR,0.00,WeatherDisplay:10.37,2013-03-30 17:23:00,
2013-03-30 13:28:00,59.5,35.1,28.94,South,183,8.1,8.1,40,0.00,CLR,CLR,0.00,WeatherDisplay:10.37,2013-03-30 17:28:00,
2013-03-30 13:33:00,59.8,36.0,28.95,South,175,10.4,10.4,41,0.00,CLR,CLR,0.00,WeatherDisplay:10.37,2013-03-30 17:33:00,
2013-03-30 13:39:00,60.2,36.4,28.98,South,177,9.2,9.2,41,0.00,CLR,CLR,0.00,WeatherDisplay:10.37,2013-03-30 17:39:00,
2013-03-30 13:44:00,60.2,36.4,28.92,SSE,152,5.8,5.8,41,0.00,CLR,CLR,0.00,WeatherDisplay:10.37,2013-03-30 17:44:00,
2013-03-30 13:49:00,60.3,34.6,28.99,NE,55,3.5,3.5,38,0.00,CLR,CLR,0.00,WeatherDisplay:10.37,2013-03-30 17:49:00,
2013-03-30 13:54:00,59.9,34.9,29.01,NE,43,3.5,3.5,39,0.00,CLR,CLR,0.00,WeatherDisplay:10.37,2013-03-30 17:54:00,
2013-03-30 14:00:00,60.1,36.3,28.93,SSW,202,6.9,6.9,41,0.00,CLR,CLR,0.00,WeatherDisplay:10.37,2013-03-30 18:00:00,
2013-03-30 14:05:00,60.5,36.0,28.94,SSW,209,11.5,11.5,40,0.00,CLR,CLR,0.00,WeatherDisplay:10.37,2013-03-30 18:05:00,
2013-03-30 14:10:00,60.6,34.8,28.96,SSE,153,3.5,3.5,38,0.00,CLR,CLR,0.00,WeatherDisplay:10.37,2013-03-30 18:10:00,
2013-03-30 14:15:00,60.8,35.7,28.91,South,174,12.7,12.7,39,0.00,CLR,CLR,0.00,WeatherDisplay:10.37,2013-03-30 18:15:00,
2013-03-30 14:20:00,61.1,34.6,28.89,SSE,164,4.0,4.0,37,0.00,CLR,CLR,0.00,WeatherDisplay:10.37,2013-03-30 18:20:00,
2013-03-30 14:26:00,61.0,33.8,28.91,SSE,157,8.1,8.1,36,0.00,CLR,CLR,0.00,WeatherDisplay:10.37,2013-03-30 18:26:00,
2013-03-30 14:31:00,60.5,34.7,29.00,SE,139,4.6,4.6,38,0.00,CLR,CLR,0.00,WeatherDisplay:10.37,2013-03-30 18:31:00,
2013-03-30 14:37:00,60.7,34.9,29.00,East,96,6.9,6.9,38,0.00,CLR,CLR,0.00,WeatherDisplay:10.37,2013-03-30 18:37:00,
2013-03-30 14:42:00,60.4,35.3,29.06,WNW,303,3.5,3.5,39,0.00,CLR,CLR,0.00,WeatherDisplay:10.37,2013-03-30 18:42:00,
2013-03-30 14:47:00,60.4,35.9,28.93,SSW,209,8.1,8.1,40,0.00,CLR,CLR,0.00,WeatherDisplay:10.37,2013-03-30 18:47:00,
2013-03-30 14:52:00,60.2,34.5,29.04,North,0,3.5,3.5,38,0.00,CLR,CLR,0.00,WeatherDisplay:10.37,2013-03-30 18:52:00,
2013-03-30 14:58:00,60.1,34.4,29.09,ESE,122,3.5,3.5,38,0.00,CLR,CLR,0.00,WeatherDisplay:10.37,2013-03-30 18:58:00,
2013-03-30 15:03:00,60.3,35.2,29.01,SE,145,4.0,4.0,39,0.00,CLR,CLR,0.00,WeatherDisplay:10.37,2013-03-30 19:03:00,
2013-03-30 15:08:00,60.6,34.8,29.01,SW,232,8.1,8.1,38,0.00,CLR,CLR,0.00,WeatherDisplay:10.37,2013-03-30 19:08:00,
2013-03-30 15:13:00,60.6,34.2,29.13,South,186,8.0,8.0,37,0.00,CLR,CLR,0.00,WeatherDisplay:10.37,2013-03-30 19:13:00,
2013-03-30 15:18:00,61.1,34.6,29.08,South,190,4.6,4.6,37,0.00,CLR,CLR,0.00,WeatherDisplay:10.37,2013-03-30 19:18:00,
2013-03-30 15:24:00,61.0,34.5,29.06,SE,138,3.0,3.4,37,0.00,CLR,CLR,0.00,WeatherDisplay:10.37,2013-03-30 19:24:00,
2013-03-30 15:29:00,61.3,35.5,28.95,South,181,10.4,10.4,38,0.00,CLR,CLR,0.00,WeatherDisplay:10.37,2013-03-30 19:29:00,
2013-03-30 15:34:00,61.5,33.6,29.06,East,84,6.9,6.9,35,0.00,CLR,CLR,0.00,WeatherDisplay:10.37,2013-03-30 19:34:00,
2013-03-30 15:39:00,61.4,34.9,29.03,South,171,10.4,10.4,37,0.00,CLR,CLR,0.00,WeatherDisplay:10.37,2013-03-30 19:39:00,
2013-03-30 15:44:00,61.1,35.3,29.03,South,169,13.8,13.8,38,0.00,CLR,CLR,0.00,WeatherDisplay:10.37,2013-03-30 19:44:00,
2013-03-30 15:50:00,61.0,35.2,29.02,South,190,10.4,10.4,38,0.00,CLR,CLR,0.00,WeatherDisplay:10.37,2013-03-30 19:50:00,
2013-03-30 15:56:00,60.9,35.8,28.97,SSW,199,8.1,8.1,39,0.00,CLR,CLR,0.00,WeatherDisplay:10.37,2013-03-30 19:56:00,
2013-03-30 16:01:00,61.1,34.6,28.96,ESE,106,15.0,15.0,37,0.00,CLR,CLR,0.00,WeatherDisplay:10.37,2013-03-30 20:01:00,
2013-03-30 16:06:00,61.3,34.1,29.02,East,84,3.5,3.5,36,0.00,CLR,CLR,0.00,WeatherDisplay:10.37,2013-03-30 20:06:00,
2013-03-30 16:11:00,61.4,35.5,29.01,SSW,192,4.6,4.6,38,0.00,CLR,CLR,0.00,WeatherDisplay:10.37,2013-03-30 20:11:00,
2013-03-30 16:16:00,61.5,35.0,28.94,SSW,204,2.3,0.0,37,0.00,CLR,CLR,0.00,WeatherDisplay:10.37,2013-03-30 20:16:00,
2013-03-30 16:22:00,61.5,35.6,28.95,South,181,11.5,11.5,38,0.00,CLR,CLR,0.00,WeatherDisplay:10.37,2013-03-30 20:22:00,
2013-03-30 16:27:00,61.3,34.1,29.03,East,97,6.9,6.9,36,0.00,CLR,CLR,0.00,WeatherDisplay:10.37,2013-03-30 20:27:00,
2013-03-30 16:32:00,60.8,33.7,29.02,East,82,1.2,1.2,36,0.00,CLR,CLR,0.00,WeatherDisplay:10.37,2013-03-30 20:32:00,
2013-03-30 16:37:00,60.7,33.6,29.01,East,94,3.5,3.5,36,0.00,CLR,CLR,0.00,WeatherDisplay:10.37,2013-03-30 20:37:00,
2013-03-30 16:43:00,60.5,35.4,28.97,South,188,10.4,10.4,39,0.00,CLR,CLR,0.00,WeatherDisplay:10.37,2013-03-30 20:43:00,
2013-03-30 16:48:00,60.7,35.6,28.96,South,183,9.2,9.2,39,0.00,CLR,CLR,0.00,WeatherDisplay:10.37,2013-03-30 20:48:00,
2013-03-30 16:53:00,60.8,35.0,29.02,South,172,5.8,5.8,38,0.00,CLR,CLR,0.00,WeatherDisplay:10.37,2013-03-30 20:53:00,
2013-03-30 16:58:00,60.7,33.6,28.99,South,185,3.5,3.5,36,0.00,CLR,CLR,0.00,WeatherDisplay:10.37,2013-03-30 20:58:00,
2013-03-30 17:03:00,60.6,33.5,29.01,South,170,4.0,4.0,36,0.00,CLR,CLR,0.00,WeatherDisplay:10.37,2013-03-30 21:03:00,
2013-03-30 17:08:00,60.6,32.8,28.98,SSE,160,4.6,4.6,35,0.00,CLR,CLR,0.00,WeatherDisplay:10.37,2013-03-30 21:08:00,
2013-03-30 17:14:00,60.7,33.6,28.99,South,186,6.9,6.9,36,0.00,CLR,CLR,0.00,WeatherDisplay:10.37,2013-03-30 21:14:00,
2013-03-30 17:19:00,60.8,33.7,28.94,SSW,212,11.0,11.0,36,0.00,CLR,CLR,0.00,WeatherDisplay:10.37,2013-03-30 21:19:00,
2013-03-30 17:24:00,60.8,33.7,28.96,SSE,152,8.1,8.1,36,0.00,CLR,CLR,0.00,WeatherDisplay:10.37,2013-03-30 21:24:00,
2013-03-30 17:29:00,60.8,32.2,28.97,South,170,3.5,3.5,34,0.00,CLR,CLR,0.00,WeatherDisplay:10.37,2013-03-30 21:29:00,
2013-03-30 17:34:00,60.9,33.7,29.03,SSE,156,6.0,6.0,36,0.00,CLR,CLR,0.00,WeatherDisplay:10.37,2013-03-30 21:34:00,
2013-03-30 17:40:00,60.8,33.0,29.04,East,98,3.5,3.5,35,0.00,CLR,CLR,0.00,WeatherDisplay:10.37,2013-03-30 21:40:00,
2013-03-30 17:45:00,60.7,34.3,29.06,South,182,7.0,7.5,37,0.00,CLR,CLR,0.00,WeatherDisplay:10.37,2013-03-30 21:45:00,
2013-03-30 17:50:00,60.5,33.4,28.92,South,178,4.6,4.6,36,0.00,CLR,CLR,0.00,WeatherDisplay:10.37,2013-03-30 21:50:00,
2013-03-30 17:55:00,60.3,33.2,28.93,South,170,3.5,3.5,36,0.00,CLR,CLR,0.00,WeatherDisplay:10.37,2013-03-30 21:55:00,
2013-03-30 18:00:00,60.2,33.1,28.98,South,191,5.0,5.0,36,0.00,CLR,CLR,0.00,WeatherDisplay:10.37,2013-03-30 22:00:00,
2013-03-30 18:05:00,59.9,34.2,28.91,South,180,9.2,9.2,38,0.00,CLR,CLR,0.00,WeatherDisplay:10.37,2013-03-30 22:05:00,
2013-03-30 18:10:00,59.8,34.1,28.49,South,184,6.9,6.9,38,0.00,CLR,CLR,0.00,WeatherDisplay:10.37,2013-03-30 22:10:00,
2013-03-30 18:15:00,59.7,33.4,28.50,SW,236,6.9,6.9,37,0.00,CLR,CLR,0.00,WeatherDisplay:10.37,2013-03-30 22:15:00,
2013-03-30 18:20:00,59.5,33.9,28.50,SSW,205,5.8,5.8,38,0.00,CLR,CLR,0.00,WeatherDisplay:10.37,2013-03-30 22:20:00,
2013-03-30 18:26:00,59.4,34.4,28.49,SSW,196,9.2,9.2,39,0.00,CLR,CLR,0.00,WeatherDisplay:10.37,2013-03-30 22:26:00,
2013-03-30 18:31:00,59.1,34.1,28.50,SSW,198,8.1,8.1,39,0.00,CLR,CLR,0.00,WeatherDisplay:10.37,2013-03-30 22:31:00,
2013-03-30 18:37:00,58.8,33.9,28.50,South,185,3.5,3.5,39,0.00,CLR,CLR,0.00,WeatherDisplay:10.37,2013-03-30 22:37:00,
2013-03-30 18:42:00,58.5,34.2,28.50,SSE,164,6.0,6.0,40,0.00,CLR,CLR,0.00,WeatherDisplay:10.37,2013-03-30 22:42:00,
2013-03-30 18:47:00,58.2,33.3,28.50,SSW,204,9.2,9.2,39,0.00,CLR,CLR,0.00,WeatherDisplay:10.37,2013-03-30 22:47:00,
2013-03-30 18:52:00,57.9,33.7,28.50,SSW,195,6.0,6.0,40,0.00,CLR,CLR,0.00,WeatherDisplay:10.37,2013-03-30 22:52:00,
2013-03-30 18:58:00,57.5,34.0,28.50,South,179,6.9,6.9,41,0.00,CLR,CLR,0.00,WeatherDisplay:10.37,2013-03-30 22:58:00,
2013-03-30 19:03:00,57.2,33.7,28.50,SSE,155,3.5,3.5,41,0.00,CLR,CLR,0.00,WeatherDisplay:10.37,2013-03-30 23:03:00,
2013-03-30 19:08:00,56.9,34.0,28.50,South,178,4.0,4.0,42,0.00,CLR,CLR,0.00,WeatherDisplay:10.37,2013-03-30 23:08:00,
2013-03-30 19:14:00,56.7,33.8,28.51,South,189,4.6,4.6,42,0.00,CLR,CLR,0.00,WeatherDisplay:10.37,2013-03-30 23:14:00,
2013-03-30 19:19:00,56.5,33.7,28.50,South,187,4.6,4.6,42,0.00,CLR,CLR,0.00,WeatherDisplay:10.37,2013-03-30 23:19:00,
2013-03-30 19:24:00,56.2,34.0,28.50,South,169,4.6,4.6,43,0.00,CLR,CLR,0.00,WeatherDisplay:10.37,2013-03-30 23:24:00,
2013-03-30 19:29:00,55.9,33.7,28.51,South,189,3.5,3.5,43,0.00,CLR,CLR,0.00,WeatherDisplay:10.37,2013-03-30 23:29:00,
2013-03-30 19:34:00,55.7,33.5,28.50,South,187,3.5,3.5,43,0.00,CLR,CLR,0.00,WeatherDisplay:10.37,2013-03-30 23:34:00,
2013-03-30 19:40:00,55.5,33.9,28.51,South,187,3.5,3.5,44,0.00,CLR,CLR,0.00,WeatherDisplay:10.37,2013-03-30 23:40:00,
2013-03-30 19:45:00,55.4,33.3,28.51,South,187,2.3,2.3,43,0.00,CLR,CLR,0.00,WeatherDisplay:10.37,2013-03-30 23:45:00,
2013-03-30 19:50:00,55.1,33.6,28.51,South,183,3.5,3.5,44,0.00,CLR,CLR,0.00,WeatherDisplay:10.37,2013-03-30 23:50:00,
2013-03-30 19:55:00,54.9,33.9,28.51,South,183,3.5,3.5,45,0.00,CLR,CLR,0.00,WeatherDisplay:10.37,2013-03-30 23:55:00,
2013-03-30 20:00:00,54.7,33.2,28.51,South,183,3.5,3.5,44,0.00,CLR,CLR,0.00,WeatherDisplay:10.37,2013-03-31 00:00:00,
2013-03-30 20:05:00,54.4,33.5,28.50,South,183,2.3,2.3,45,0.00,CLR,CLR,0.00,WeatherDisplay:10.37,2013-03-31 00:05:00,
2013-03-30 20:11:00,54.3,32.8,28.51,South,183,2.3,2.3,44,0.00,CLR,CLR,0.00,WeatherDisplay:10.37,2013-03-31 00:11:00,
2013-03-30 20:17:00,54.2,33.3,28.51,South,183,1.2,1.2,45,0.00,CLR,CLR,0.00,WeatherDisplay:10.37,2013-03-31 00:17:00,
2013-03-30 20:22:00,54.0,33.1,28.50,South,183,0.0,0.0,45,0.00,CLR,CLR,0.00,WeatherDisplay:10.37,2013-03-31 00:22:00,
2013-03-30 20:27:00,53.7,32.8,28.50,South,183,0.0,0.0,45,0.00,CLR,CLR,0.00,WeatherDisplay:10.37,2013-03-31 00:27:00,
2013-03-30 20:32:00,53.5,32.7,28.50,South,183,0.0,0.0,45,0.00,CLR,CLR,0.00,WeatherDisplay:10.37,2013-03-31 00:32:00,
2013-03-30 20:38:00,53.4,32.6,28.50,South,183,0.0,0.0,45,0.00,CLR,CLR,0.00,WeatherDisplay:10.37,2013-03-31 00:38:00,
2013-03-30 20:43:00,53.2,32.4,28.51,South,183,0.0,0.0,45,0.00,CLR,CLR,0.00,WeatherDisplay:10.37,2013-03-31 00:43:00,
2013-03-30 20:48:00,53.1,32.3,28.51,South,183,0.0,0.0,45,0.00,CLR,CLR,0.00,WeatherDisplay:10.37,2013-03-31 00:48:00,
2013-03-30 20:53:00,52.8,32.6,28.50,South,183,0.0,0.0,46,0.00,CLR,CLR,0.00,WeatherDisplay:10.37,2013-03-31 00:53:00,
2013-03-30 20:58:00,52.7,32.5,28.51,South,183,0.0,0.0,46,0.00,CLR,CLR,0.00,WeatherDisplay:10.37,2013-03-31 00:58:00,
2013-03-30 21:03:00,52.5,32.3,28.51,South,183,0.0,0.0,46,0.00,CLR,CLR,0.00,WeatherDisplay:10.37,2013-03-31 01:03:00,
2013-03-30 21:08:00,52.4,32.2,28.51,South,183,0.0,0.0,46,0.00,CLR,CLR,0.00,WeatherDisplay:10.37,2013-03-31 01:08:00,
2013-03-30 21:13:00,52.2,32.6,28.51,South,183,0.0,0.0,47,0.00,CLR,CLR,0.00,WeatherDisplay:10.37,2013-03-31 01:13:00,
2013-03-30 21:19:00,52.1,32.5,28.51,South,183,0.0,0.0,47,0.00,CLR,CLR,0.00,WeatherDisplay:10.37,2013-03-31 01:19:00,
2013-03-30 21:24:00,52.0,32.4,28.50,South,183,0.0,0.0,47,0.00,CLR,CLR,0.00,WeatherDisplay:10.37,2013-03-31 01:24:00,
2013-03-30 21:29:00,51.8,31.7,28.50,South,183,0.0,0.0,46,0.00,CLR,CLR,0.00,WeatherDisplay:10.37,2013-03-31 01:29:00,
2013-03-30 21:34:00,51.7,32.1,28.50,South,183,0.0,0.0,47,0.00,CLR,CLR,0.00,WeatherDisplay:10.37,2013-03-31 01:34:00,
2013-03-30 21:39:00,51.6,32.0,28.50,South,183,0.0,0.0,47,0.00,CLR,CLR,0.00,WeatherDisplay:10.37,2013-03-31 01:39:00,
2013-03-30 21:44:00,51.6,32.5,28.50,South,183,0.0,0.0,48,0.00,CLR,CLR,0.00,WeatherDisplay:10.37,2013-03-31 01:44:00,
2013-03-30 21:49:00,51.6,33.0,28.51,South,183,2.3,2.3,49,0.00,CLR,CLR,0.00,WeatherDisplay:10.37,2013-03-31 01:49:00,
2013-03-30 21:55:00,51.5,33.0,28.50,South,183,2.3,2.3,49,0.00,CLR,CLR,0.00,WeatherDisplay:10.37,2013-03-31 01:55:00,
2013-03-30 22:00:00,51.5,33.5,28.51,South,183,3.5,3.5,50,0.00,CLR,CLR,0.00,WeatherDisplay:10.37,2013-03-31 02:00:00,
2013-03-30 22:05:00,51.4,33.4,28.51,South,183,2.3,2.3,50,0.00,CLR,CLR,0.00,WeatherDisplay:10.37,2013-03-31 02:05:00,
2013-03-30 22:10:00,51.3,33.3,28.50,South,183,3.5,3.5,50,0.00,CLR,CLR,0.00,WeatherDisplay:10.37,2013-03-31 02:10:00,
2013-03-30 22:15:00,51.2,33.2,28.50,South,184,3.5,3.5,50,0.00,CLR,CLR,0.00,WeatherDisplay:10.37,2013-03-31 02:15:00,
2013-03-30 22:20:00,51.1,33.1,28.50,South,183,3.5,3.5,50,0.00,CLR,CLR,0.00,WeatherDisplay:10.37,2013-03-31 02:20:00,
2013-03-30 22:26:00,50.9,33.4,28.50,South,183,2.3,2.3,51,0.00,CLR,CLR,0.00,WeatherDisplay:10.37,2013-03-31 02:26:00,
2013-03-30 22:31:00,50.7,33.2,28.51,South,183,3.5,3.5,51,0.00,CLR,CLR,0.00,WeatherDisplay:10.37,2013-03-31 02:31:00,
2013-03-30 22:37:00,50.6,33.1,28.51,South,183,2.3,2.3,51,0.00,CLR,CLR,0.00,WeatherDisplay:10.37,2013-03-31 02:37:00,
2013-03-30 22:42:00,50.5,33.5,28.50,South,183,2.3,2.3,52,0.00,CLR,CLR,0.00,WeatherDisplay:10.37,2013-03-31 02:42:00,
2013-03-30 22:47:00,50.5,33.5,28.50,South,183,0.0,0.0,52,0.00,CLR,CLR,0.00,WeatherDisplay:10.37,2013-03-31 02:47:00,
2013-03-30 22:52:00,50.5,33.5,28.50,South,183,0.0,0.0,52,0.00,CLR,CLR,0.00,WeatherDisplay:10.37,2013-03-31 02:52:00,
2013-03-30 22:57:00,50.4,32.9,28.50,South,183,0.0,0.0,51,0.00,CLR,CLR,0.00,WeatherDisplay:10.37,2013-03-31 02:57:00,
2013-03-30 23:03:00,50.3,32.8,28.50,South,183,0.0,0.0,51,0.00,CLR,CLR,0.00,WeatherDisplay:10.37,2013-03-31 03:03:00,
2013-03-30 23:08:00,50.4,33.4,28.50,South,183,0.0,0.0,52,0.00,CLR,CLR,0.00,WeatherDisplay:10.37,2013-03-31 03:08:00,
2013-03-30 23:13:00,50.4,33.9,28.50,South,183,0.0,0.1,53,0.00,CLR,CLR,0.00,WeatherDisplay:10.37,2013-03-31 03:13:00,
2013-03-30 23:18:00,50.4,33.9,28.50,South,183,1.0,1.0,53,0.00,CLR,CLR,0.00,WeatherDisplay:10.37,2013-03-31 03:18:00,
2013-03-30 23:23:00,50.4,34.4,28.50,South,183,2.3,0.0,54,0.00,CLR,CLR,0.00,WeatherDisplay:10.37,2013-03-31 03:23:00,
2013-03-30 23:28:00,50.4,34.4,28.50,South,183,2.3,2.3,54,0.00,CLR,CLR,0.00,WeatherDisplay:10.37,2013-03-31 03:28:00,
2013-03-30 23:33:00,50.4,34.8,28.50,South,183,2.3,2.3,55,0.00,CLR,CLR,0.00,WeatherDisplay:10.37,2013-03-31 03:33:00,
2013-03-30 23:38:00,50.4,35.3,28.50,South,183,2.3,2.3,56,0.00,CLR,CLR,0.00,WeatherDisplay:10.37,2013-03-31 03:38:00,
2013-03-30 23:43:00,50.4,35.7,28.49,South,183,3.5,3.5,57,0.00,CLR,CLR,0.00,WeatherDisplay:10.37,2013-03-31 03:43:00,
2013-03-30 23:49:00,50.7,36.0,28.50,South,183,1.2,1.2,57,0.00,CLR,CLR,0.00,WeatherDisplay:10.37,2013-03-31 03:49:00,
2013-03-30 23:54:00,50.8,36.5,28.49,South,183,2.3,2.3,58,0.00,CLR,CLR,0.00,WeatherDisplay:10.37,2013-03-31 03:54:00,
2013-03-30 23:59:00,50.9,36.6,28.49,South,183,2.3,2.3,58,0.00,CLR,CLR,0.00,WeatherDisplay:10.37,2013-03-31 03:59:00,